sensor_id;sensor_type;location;lat;lon;timestamp;P1;durP1;ratioP1;P2;durP2;ratioP2
18724;SDS011;65581;52.130;5.584;2022-11-28T00:02:25;12.20;;;6.33;;
18724;SDS011;65581;52.130;5.584;2022-11-28T00:04:53;12.83;;;5.90;;
18724;SDS011;65581;52.130;5.584;2022-11-28T00:07:20;12.37;;;5.87;;
18724;SDS011;65581;52.130;5.584;2022-11-28T00:09:48;11.77;;;5.83;;
18724;SDS011;65581;52.130;5.584;2022-11-28T00:12:16;11.43;;;6.20;;
18724;SDS011;65581;52.130;5.584;2022-11-28T00:14:43;12.73;;;5.80;;
18724;SDS011;65581;52.130;5.584;2022-11-28T00:17:10;11.87;;;6.10;;
18724;SDS011;65581;52.130;5.584;2022-11-28T00:19:37;11.37;;;5.43;;
18724;SDS011;65581;52.130;5.584;2022-11-28T00:22:04;10.10;;;5.70;;
18724;SDS011;65581;52.130;5.584;2022-11-28T00:24:30;9.67;;;5.67;;
18724;SDS011;65581;52.130;5.584;2022-11-28T00:26:58;10.83;;;5.70;;
18724;SDS011;65581;52.130;5.584;2022-11-28T00:29:25;10.43;;;5.70;;
18724;SDS011;65581;52.130;5.584;2022-11-28T00:31:52;9.47;;;5.27;;
18724;SDS011;65581;52.130;5.584;2022-11-28T00:34:19;10.00;;;5.27;;
18724;SDS011;65581;52.130;5.584;2022-11-28T00:36:46;10.57;;;5.10;;
18724;SDS011;65581;52.130;5.584;2022-11-28T00:39:13;9.63;;;5.27;;
18724;SDS011;65581;52.130;5.584;2022-11-28T00:41:41;10.93;;;5.47;;
18724;SDS011;65581;52.130;5.584;2022-11-28T00:44:10;10.37;;;5.03;;
18724;SDS011;65581;52.130;5.584;2022-11-28T00:46:37;8.50;;;4.83;;
18724;SDS011;65581;52.130;5.584;2022-11-28T00:49:05;10.37;;;5.03;;
18724;SDS011;65581;52.130;5.584;2022-11-28T00:51:31;9.20;;;5.10;;
18724;SDS011;65581;52.130;5.584;2022-11-28T00:54:03;15.57;;;5.43;;
18724;SDS011;65581;52.130;5.584;2022-11-28T00:56:32;7.97;;;4.97;;
18724;SDS011;65581;52.130;5.584;2022-11-28T00:59:03;9.47;;;5.30;;
18724;SDS011;65581;52.130;5.584;2022-11-28T01:01:32;9.53;;;5.30;;
18724;SDS011;65581;52.130;5.584;2022-11-28T01:04:01;8.50;;;5.13;;
18724;SDS011;65581;52.130;5.584;2022-11-28T01:06:31;9.90;;;5.30;;
18724;SDS011;65581;52.130;5.584;2022-11-28T01:09:00;9.83;;;5.30;;
18724;SDS011;65581;52.130;5.584;2022-11-28T01:11:29;9.57;;;5.43;;
18724;SDS011;65581;52.130;5.584;2022-11-28T01:13:57;10.23;;;5.20;;
18724;SDS011;65581;52.130;5.584;2022-11-28T01:16:25;9.50;;;5.30;;
18724;SDS011;65581;52.130;5.584;2022-11-28T01:18:54;11.73;;;5.87;;
18724;SDS011;65581;52.130;5.584;2022-11-28T01:21:21;11.63;;;5.60;;
18724;SDS011;65581;52.130;5.584;2022-11-28T01:23:48;11.20;;;6.00;;
18724;SDS011;65581;52.130;5.584;2022-11-28T01:26:16;11.80;;;5.67;;
18724;SDS011;65581;52.130;5.584;2022-11-28T01:28:45;11.37;;;5.77;;
18724;SDS011;65581;52.130;5.584;2022-11-28T01:31:13;11.93;;;5.20;;
18724;SDS011;65581;52.130;5.584;2022-11-28T01:33:41;9.03;;;5.73;;
18724;SDS011;65581;52.130;5.584;2022-11-28T01:36:10;10.60;;;5.70;;
18724;SDS011;65581;52.130;5.584;2022-11-28T01:38:38;10.53;;;5.83;;
18724;SDS011;65581;52.130;5.584;2022-11-28T01:41:05;10.93;;;6.13;;
18724;SDS011;65581;52.130;5.584;2022-11-28T01:43:33;12.27;;;6.23;;
18724;SDS011;65581;52.130;5.584;2022-11-28T01:46:00;10.70;;;5.50;;
18724;SDS011;65581;52.130;5.584;2022-11-28T01:48:28;12.77;;;5.60;;
18724;SDS011;65581;52.130;5.584;2022-11-28T01:50:58;10.30;;;5.47;;
18724;SDS011;65581;52.130;5.584;2022-11-28T01:53:32;11.90;;;5.97;;
18724;SDS011;65581;52.130;5.584;2022-11-28T01:56:04;9.60;;;5.77;;
18724;SDS011;65581;52.130;5.584;2022-11-28T01:58:34;10.07;;;5.73;;
18724;SDS011;65581;52.130;5.584;2022-11-28T02:01:04;14.20;;;6.10;;
18724;SDS011;65581;52.130;5.584;2022-11-28T02:03:32;10.17;;;5.87;;
18724;SDS011;65581;52.130;5.584;2022-11-28T02:06:05;9.97;;;6.00;;
18724;SDS011;65581;52.130;5.584;2022-11-28T02:08:34;9.87;;;5.97;;
18724;SDS011;65581;52.130;5.584;2022-11-28T02:11:15;13.43;;;5.47;;
18724;SDS011;65581;52.130;5.584;2022-11-28T02:13:54;13.77;;;6.00;;
18724;SDS011;65581;52.130;5.584;2022-11-28T02:16:30;12.37;;;5.67;;
18724;SDS011;65581;52.130;5.584;2022-11-28T02:19:21;13.10;;;5.30;;
18724;SDS011;65581;52.130;5.584;2022-11-28T02:22:02;13.43;;;5.70;;
18724;SDS011;65581;52.130;5.584;2022-11-28T02:27:32;12.80;;;5.43;;
18724;SDS011;65581;52.130;5.584;2022-11-28T02:30:13;9.53;;;5.37;;
18724;SDS011;65581;52.130;5.584;2022-11-28T02:32:47;11.13;;;4.90;;
18724;SDS011;65581;52.130;5.584;2022-11-28T02:35:33;10.00;;;4.97;;
18724;SDS011;65581;52.130;5.584;2022-11-28T02:38:08;8.63;;;5.20;;
18724;SDS011;65581;52.130;5.584;2022-11-28T02:40:46;9.47;;;4.70;;
18724;SDS011;65581;52.130;5.584;2022-11-28T02:43:21;13.47;;;5.00;;
18724;SDS011;65581;52.130;5.584;2022-11-28T02:45:54;8.63;;;4.83;;
18724;SDS011;65581;52.130;5.584;2022-11-28T02:48:28;8.63;;;4.80;;
18724;SDS011;65581;52.130;5.584;2022-11-28T02:51:02;9.67;;;4.50;;
18724;SDS011;65581;52.130;5.584;2022-11-28T02:53:35;9.70;;;4.50;;
18724;SDS011;65581;52.130;5.584;2022-11-28T02:56:03;9.03;;;4.80;;
18724;SDS011;65581;52.130;5.584;2022-11-28T02:58:30;12.40;;;4.83;;
18724;SDS011;65581;52.130;5.584;2022-11-28T03:00:57;12.60;;;5.10;;
18724;SDS011;65581;52.130;5.584;2022-11-28T03:03:30;9.77;;;4.90;;
18724;SDS011;65581;52.130;5.584;2022-11-28T03:06:08;9.70;;;4.70;;
18724;SDS011;65581;52.130;5.584;2022-11-28T03:08:45;7.20;;;4.00;;
18724;SDS011;65581;52.130;5.584;2022-11-28T03:11:27;9.47;;;4.60;;
18724;SDS011;65581;52.130;5.584;2022-11-28T03:14:07;8.57;;;4.23;;
18724;SDS011;65581;52.130;5.584;2022-11-28T03:16:42;9.73;;;4.83;;
18724;SDS011;65581;52.130;5.584;2022-11-28T03:19:18;9.87;;;4.77;;
18724;SDS011;65581;52.130;5.584;2022-11-28T03:21:49;7.53;;;4.20;;
18724;SDS011;65581;52.130;5.584;2022-11-28T03:24:24;8.30;;;4.97;;
18724;SDS011;65581;52.130;5.584;2022-11-28T03:27:00;10.97;;;4.70;;
18724;SDS011;65581;52.130;5.584;2022-11-28T03:29:32;9.00;;;4.30;;
18724;SDS011;65581;52.130;5.584;2022-11-28T03:32:02;8.63;;;5.00;;
18724;SDS011;65581;52.130;5.584;2022-11-28T03:34:35;8.17;;;4.80;;
18724;SDS011;65581;52.130;5.584;2022-11-28T03:37:07;7.57;;;4.50;;
18724;SDS011;65581;52.130;5.584;2022-11-28T03:39:37;5.87;;;4.07;;
18724;SDS011;65581;52.130;5.584;2022-11-28T03:42:09;7.57;;;4.40;;
18724;SDS011;65581;52.130;5.584;2022-11-28T03:44:39;7.63;;;4.10;;
18724;SDS011;65581;52.130;5.584;2022-11-28T03:47:09;8.20;;;4.50;;
18724;SDS011;65581;52.130;5.584;2022-11-28T03:49:38;7.77;;;4.40;;
18724;SDS011;65581;52.130;5.584;2022-11-28T03:52:09;8.90;;;4.43;;
18724;SDS011;65581;52.130;5.584;2022-11-28T03:54:40;9.27;;;5.10;;
18724;SDS011;65581;52.130;5.584;2022-11-28T03:57:16;7.93;;;4.73;;
18724;SDS011;65581;52.130;5.584;2022-11-28T03:59:48;10.27;;;5.50;;
18724;SDS011;65581;52.130;5.584;2022-11-28T04:02:19;8.23;;;4.80;;
18724;SDS011;65581;52.130;5.584;2022-11-28T04:04:52;8.37;;;4.77;;
18724;SDS011;65581;52.130;5.584;2022-11-28T04:07:26;8.27;;;4.70;;
18724;SDS011;65581;52.130;5.584;2022-11-28T04:09:59;7.37;;;4.43;;
18724;SDS011;65581;52.130;5.584;2022-11-28T04:12:35;9.27;;;4.40;;
18724;SDS011;65581;52.130;5.584;2022-11-28T04:15:12;10.17;;;4.67;;
18724;SDS011;65581;52.130;5.584;2022-11-28T04:17:44;8.40;;;4.63;;
18724;SDS011;65581;52.130;5.584;2022-11-28T04:20:17;9.13;;;4.27;;
18724;SDS011;65581;52.130;5.584;2022-11-28T04:22:53;7.97;;;5.20;;
18724;SDS011;65581;52.130;5.584;2022-11-28T04:25:24;7.80;;;4.80;;
18724;SDS011;65581;52.130;5.584;2022-11-28T04:27:55;7.93;;;5.30;;
18724;SDS011;65581;52.130;5.584;2022-11-28T04:30:24;8.20;;;4.83;;
18724;SDS011;65581;52.130;5.584;2022-11-28T04:32:52;9.70;;;5.37;;
18724;SDS011;65581;52.130;5.584;2022-11-28T04:35:26;8.33;;;4.90;;
18724;SDS011;65581;52.130;5.584;2022-11-28T04:37:57;8.87;;;5.00;;
18724;SDS011;65581;52.130;5.584;2022-11-28T04:40:25;9.13;;;4.63;;
18724;SDS011;65581;52.130;5.584;2022-11-28T04:42:56;8.50;;;4.90;;
18724;SDS011;65581;52.130;5.584;2022-11-28T04:45:28;8.47;;;4.77;;
18724;SDS011;65581;52.130;5.584;2022-11-28T04:47:58;8.93;;;5.30;;
18724;SDS011;65581;52.130;5.584;2022-11-28T04:50:28;7.67;;;4.90;;
18724;SDS011;65581;52.130;5.584;2022-11-28T04:52:59;10.10;;;5.07;;
18724;SDS011;65581;52.130;5.584;2022-11-28T04:55:32;9.87;;;5.10;;
18724;SDS011;65581;52.130;5.584;2022-11-28T04:58:05;10.03;;;5.07;;
18724;SDS011;65581;52.130;5.584;2022-11-28T05:00:36;11.20;;;5.43;;
18724;SDS011;65581;52.130;5.584;2022-11-28T05:03:04;8.40;;;5.20;;
18724;SDS011;65581;52.130;5.584;2022-11-28T05:05:40;11.00;;;5.57;;
18724;SDS011;65581;52.130;5.584;2022-11-28T05:08:09;9.83;;;5.17;;
18724;SDS011;65581;52.130;5.584;2022-11-28T05:10:36;9.27;;;5.67;;
18724;SDS011;65581;52.130;5.584;2022-11-28T05:13:03;8.20;;;5.10;;
18724;SDS011;65581;52.130;5.584;2022-11-28T05:15:30;7.20;;;5.10;;
18724;SDS011;65581;52.130;5.584;2022-11-28T05:17:57;7.97;;;5.17;;
18724;SDS011;65581;52.130;5.584;2022-11-28T05:20:24;9.97;;;4.83;;
18724;SDS011;65581;52.130;5.584;2022-11-28T05:22:52;8.10;;;4.80;;
18724;SDS011;65581;52.130;5.584;2022-11-28T05:25:19;9.60;;;5.00;;
18724;SDS011;65581;52.130;5.584;2022-11-28T05:27:46;7.40;;;4.40;;
18724;SDS011;65581;52.130;5.584;2022-11-28T05:30:13;8.30;;;5.07;;
18724;SDS011;65581;52.130;5.584;2022-11-28T05:32:40;10.07;;;4.93;;
18724;SDS011;65581;52.130;5.584;2022-11-28T05:35:07;8.23;;;4.97;;
18724;SDS011;65581;52.130;5.584;2022-11-28T05:37:34;8.90;;;4.73;;
18724;SDS011;65581;52.130;5.584;2022-11-28T05:40:03;8.63;;;5.23;;
18724;SDS011;65581;52.130;5.584;2022-11-28T05:42:31;8.63;;;5.10;;
18724;SDS011;65581;52.130;5.584;2022-11-28T05:44:58;7.17;;;4.73;;
18724;SDS011;65581;52.130;5.584;2022-11-28T05:47:25;9.30;;;5.33;;
18724;SDS011;65581;52.130;5.584;2022-11-28T05:49:52;9.37;;;4.77;;
18724;SDS011;65581;52.130;5.584;2022-11-28T05:52:19;9.87;;;5.13;;
18724;SDS011;65581;52.130;5.584;2022-11-28T05:54:45;7.47;;;4.87;;
18724;SDS011;65581;52.130;5.584;2022-11-28T05:57:13;8.77;;;5.03;;
18724;SDS011;65581;52.130;5.584;2022-11-28T05:59:40;10.13;;;4.90;;
18724;SDS011;65581;52.130;5.584;2022-11-28T06:02:07;7.63;;;4.40;;
18724;SDS011;65581;52.130;5.584;2022-11-28T06:04:34;7.63;;;4.93;;
18724;SDS011;65581;52.130;5.584;2022-11-28T06:07:01;7.47;;;4.83;;
18724;SDS011;65581;52.130;5.584;2022-11-28T06:09:27;7.20;;;5.03;;
18724;SDS011;65581;52.130;5.584;2022-11-28T06:11:54;7.73;;;4.77;;
18724;SDS011;65581;52.130;5.584;2022-11-28T06:14:22;7.77;;;4.80;;
18724;SDS011;65581;52.130;5.584;2022-11-28T06:16:49;8.93;;;4.87;;
18724;SDS011;65581;52.130;5.584;2022-11-28T06:19:16;7.17;;;4.80;;
18724;SDS011;65581;52.130;5.584;2022-11-28T06:21:43;6.50;;;4.47;;
18724;SDS011;65581;52.130;5.584;2022-11-28T06:24:10;8.43;;;4.50;;
18724;SDS011;65581;52.130;5.584;2022-11-28T06:26:37;6.87;;;4.77;;
18724;SDS011;65581;52.130;5.584;2022-11-28T06:29:03;9.27;;;5.20;;
18724;SDS011;65581;52.130;5.584;2022-11-28T06:31:32;7.57;;;4.60;;
18724;SDS011;65581;52.130;5.584;2022-11-28T06:33:58;7.73;;;5.00;;
18724;SDS011;65581;52.130;5.584;2022-11-28T06:36:26;7.97;;;4.80;;
18724;SDS011;65581;52.130;5.584;2022-11-28T06:38:54;7.83;;;5.40;;
18724;SDS011;65581;52.130;5.584;2022-11-28T06:41:21;7.97;;;5.30;;
18724;SDS011;65581;52.130;5.584;2022-11-28T06:43:48;10.50;;;5.30;;
18724;SDS011;65581;52.130;5.584;2022-11-28T06:46:16;8.20;;;5.40;;
18724;SDS011;65581;52.130;5.584;2022-11-28T06:48:46;7.97;;;5.60;;
18724;SDS011;65581;52.130;5.584;2022-11-28T06:51:13;10.40;;;5.67;;
18724;SDS011;65581;52.130;5.584;2022-11-28T06:53:40;8.67;;;5.40;;
18724;SDS011;65581;52.130;5.584;2022-11-28T06:56:08;10.33;;;6.23;;
18724;SDS011;65581;52.130;5.584;2022-11-28T06:58:36;9.70;;;5.80;;
18724;SDS011;65581;52.130;5.584;2022-11-28T07:01:06;8.00;;;5.17;;
18724;SDS011;65581;52.130;5.584;2022-11-28T07:03:35;9.37;;;5.23;;
18724;SDS011;65581;52.130;5.584;2022-11-28T07:06:04;7.00;;;5.10;;
18724;SDS011;65581;52.130;5.584;2022-11-28T07:08:31;9.33;;;5.53;;
18724;SDS011;65581;52.130;5.584;2022-11-28T07:11:05;8.53;;;5.90;;
18724;SDS011;65581;52.130;5.584;2022-11-28T07:13:33;9.20;;;5.80;;
18724;SDS011;65581;52.130;5.584;2022-11-28T07:15:59;10.43;;;5.73;;
18724;SDS011;65581;52.130;5.584;2022-11-28T07:18:26;9.43;;;5.37;;
18724;SDS011;65581;52.130;5.584;2022-11-28T07:20:53;9.13;;;5.67;;
18724;SDS011;65581;52.130;5.584;2022-11-28T07:23:21;9.47;;;5.83;;
18724;SDS011;65581;52.130;5.584;2022-11-28T07:25:48;9.07;;;6.00;;
18724;SDS011;65581;52.130;5.584;2022-11-28T07:28:15;9.30;;;5.87;;
18724;SDS011;65581;52.130;5.584;2022-11-28T07:30:42;8.00;;;5.90;;
18724;SDS011;65581;52.130;5.584;2022-11-28T07:33:08;9.10;;;6.13;;
18724;SDS011;65581;52.130;5.584;2022-11-28T07:35:35;9.30;;;5.90;;
18724;SDS011;65581;52.130;5.584;2022-11-28T07:38:02;9.40;;;6.27;;
18724;SDS011;65581;52.130;5.584;2022-11-28T07:40:30;13.87;;;6.73;;
18724;SDS011;65581;52.130;5.584;2022-11-28T07:42:57;15.80;;;6.33;;
18724;SDS011;65581;52.130;5.584;2022-11-28T07:45:24;12.80;;;6.10;;
18724;SDS011;65581;52.130;5.584;2022-11-28T07:47:51;12.53;;;6.73;;
18724;SDS011;65581;52.130;5.584;2022-11-28T07:50:18;10.93;;;6.60;;
18724;SDS011;65581;52.130;5.584;2022-11-28T07:52:45;10.97;;;7.00;;
18724;SDS011;65581;52.130;5.584;2022-11-28T07:55:14;9.10;;;6.33;;
18724;SDS011;65581;52.130;5.584;2022-11-28T07:57:45;12.17;;;7.13;;
18724;SDS011;65581;52.130;5.584;2022-11-28T08:00:13;11.67;;;7.20;;
18724;SDS011;65581;52.130;5.584;2022-11-28T08:02:41;9.77;;;6.47;;
18724;SDS011;65581;52.130;5.584;2022-11-28T08:05:08;10.93;;;7.07;;
18724;SDS011;65581;52.130;5.584;2022-11-28T08:07:37;12.23;;;7.07;;
18724;SDS011;65581;52.130;5.584;2022-11-28T08:10:04;12.53;;;7.00;;
18724;SDS011;65581;52.130;5.584;2022-11-28T08:12:32;10.17;;;6.77;;
18724;SDS011;65581;52.130;5.584;2022-11-28T08:15:00;12.10;;;7.27;;
18724;SDS011;65581;52.130;5.584;2022-11-28T08:17:27;9.87;;;6.47;;
18724;SDS011;65581;52.130;5.584;2022-11-28T08:19:54;11.37;;;7.20;;
18724;SDS011;65581;52.130;5.584;2022-11-28T08:22:21;13.63;;;7.53;;
18724;SDS011;65581;52.130;5.584;2022-11-28T08:24:47;11.33;;;6.90;;
18724;SDS011;65581;52.130;5.584;2022-11-28T08:27:14;13.20;;;7.77;;
18724;SDS011;65581;52.130;5.584;2022-11-28T08:29:41;13.23;;;7.43;;
18724;SDS011;65581;52.130;5.584;2022-11-28T08:32:09;15.27;;;7.40;;
18724;SDS011;65581;52.130;5.584;2022-11-28T08:34:36;12.23;;;7.10;;
18724;SDS011;65581;52.130;5.584;2022-11-28T08:37:03;15.13;;;8.30;;
18724;SDS011;65581;52.130;5.584;2022-11-28T08:39:30;11.40;;;6.97;;
18724;SDS011;65581;52.130;5.584;2022-11-28T08:41:57;12.17;;;7.33;;
18724;SDS011;65581;52.130;5.584;2022-11-28T08:44:24;13.80;;;7.67;;
18724;SDS011;65581;52.130;5.584;2022-11-28T08:46:51;13.73;;;7.33;;
18724;SDS011;65581;52.130;5.584;2022-11-28T08:49:20;12.43;;;7.23;;
18724;SDS011;65581;52.130;5.584;2022-11-28T08:51:47;9.93;;;6.80;;
18724;SDS011;65581;52.130;5.584;2022-11-28T08:54:13;10.87;;;7.10;;
18724;SDS011;65581;52.130;5.584;2022-11-28T08:56:40;12.13;;;7.47;;
18724;SDS011;65581;52.130;5.584;2022-11-28T08:59:09;13.37;;;8.63;;
18724;SDS011;65581;52.130;5.584;2022-11-28T09:01:35;10.77;;;7.10;;
18724;SDS011;65581;52.130;5.584;2022-11-28T09:04:03;10.17;;;6.50;;
18724;SDS011;65581;52.130;5.584;2022-11-28T09:06:31;11.27;;;6.43;;
18724;SDS011;65581;52.130;5.584;2022-11-28T09:08:58;10.90;;;6.60;;
18724;SDS011;65581;52.130;5.584;2022-11-28T09:11:26;9.43;;;5.80;;
18724;SDS011;65581;52.130;5.584;2022-11-28T09:13:52;8.60;;;5.90;;
18724;SDS011;65581;52.130;5.584;2022-11-28T09:16:19;10.10;;;5.77;;
18724;SDS011;65581;52.130;5.584;2022-11-28T09:18:46;10.57;;;6.00;;
18724;SDS011;65581;52.130;5.584;2022-11-28T09:21:13;9.90;;;6.20;;
18724;SDS011;65581;52.130;5.584;2022-11-28T09:23:42;9.90;;;5.67;;
18724;SDS011;65581;52.130;5.584;2022-11-28T09:26:10;11.87;;;6.53;;
18724;SDS011;65581;52.130;5.584;2022-11-28T09:28:39;11.83;;;6.27;;
18724;SDS011;65581;52.130;5.584;2022-11-28T09:31:06;10.77;;;6.67;;
18724;SDS011;65581;52.130;5.584;2022-11-28T09:33:33;8.77;;;6.00;;
18724;SDS011;65581;52.130;5.584;2022-11-28T09:36:03;10.30;;;5.90;;
18724;SDS011;65581;52.130;5.584;2022-11-28T09:38:30;9.03;;;5.87;;
18724;SDS011;65581;52.130;5.584;2022-11-28T09:40:58;8.30;;;5.37;;
18724;SDS011;65581;52.130;5.584;2022-11-28T09:43:28;8.00;;;5.47;;
18724;SDS011;65581;52.130;5.584;2022-11-28T09:46:58;7.97;;;5.27;;
18724;SDS011;65581;52.130;5.584;2022-11-28T09:49:30;8.80;;;6.00;;
18724;SDS011;65581;52.130;5.584;2022-11-28T09:52:02;9.70;;;5.90;;
18724;SDS011;65581;52.130;5.584;2022-11-28T09:54:36;10.47;;;6.27;;
18724;SDS011;65581;52.130;5.584;2022-11-28T09:57:10;11.73;;;6.67;;
18724;SDS011;65581;52.130;5.584;2022-11-28T09:59:41;12.33;;;6.90;;
18724;SDS011;65581;52.130;5.584;2022-11-28T10:02:15;12.57;;;7.10;;
18724;SDS011;65581;52.130;5.584;2022-11-28T10:04:50;16.50;;;8.30;;
18724;SDS011;65581;52.130;5.584;2022-11-28T10:07:26;16.70;;;8.73;;
18724;SDS011;65581;52.130;5.584;2022-11-28T10:09:59;17.43;;;9.27;;
18724;SDS011;65581;52.130;5.584;2022-11-28T10:12:36;19.30;;;9.37;;
18724;SDS011;65581;52.130;5.584;2022-11-28T10:15:18;18.33;;;9.57;;
18724;SDS011;65581;52.130;5.584;2022-11-28T10:17:54;21.50;;;9.97;;
18724;SDS011;65581;52.130;5.584;2022-11-28T10:20:32;20.67;;;10.03;;
18724;SDS011;65581;52.130;5.584;2022-11-28T10:23:06;22.07;;;10.67;;
18724;SDS011;65581;52.130;5.584;2022-11-28T10:25:40;26.80;;;10.60;;
18724;SDS011;65581;52.130;5.584;2022-11-28T10:28:10;28.63;;;11.03;;
18724;SDS011;65581;52.130;5.584;2022-11-28T10:30:42;25.47;;;11.53;;
18724;SDS011;65581;52.130;5.584;2022-11-28T10:33:17;25.90;;;11.03;;
18724;SDS011;65581;52.130;5.584;2022-11-28T10:35:51;31.33;;;12.37;;
18724;SDS011;65581;52.130;5.584;2022-11-28T10:38:23;32.60;;;12.87;;
18724;SDS011;65581;52.130;5.584;2022-11-28T10:40:53;30.63;;;12.20;;
18724;SDS011;65581;52.130;5.584;2022-11-28T10:43:28;29.93;;;11.80;;
18724;SDS011;65581;52.130;5.584;2022-11-28T10:46:04;34.80;;;13.40;;
18724;SDS011;65581;52.130;5.584;2022-11-28T10:48:48;31.77;;;12.67;;
18724;SDS011;65581;52.130;5.584;2022-11-28T10:51:25;39.30;;;13.47;;
18724;SDS011;65581;52.130;5.584;2022-11-28T10:54:03;32.17;;;13.13;;
18724;SDS011;65581;52.130;5.584;2022-11-28T10:56:42;32.83;;;13.40;;
18724;SDS011;65581;52.130;5.584;2022-11-28T10:59:19;36.17;;;13.60;;
18724;SDS011;65581;52.130;5.584;2022-11-28T11:01:55;47.53;;;14.73;;
18724;SDS011;65581;52.130;5.584;2022-11-28T11:04:24;39.17;;;14.73;;
18724;SDS011;65581;52.130;5.584;2022-11-28T11:06:56;40.30;;;15.43;;
18724;SDS011;65581;52.130;5.584;2022-11-28T11:09:28;41.93;;;14.83;;
18724;SDS011;65581;52.130;5.584;2022-11-28T11:11:56;43.13;;;15.13;;
18724;SDS011;65581;52.130;5.584;2022-11-28T11:14:31;42.87;;;15.10;;
18724;SDS011;65581;52.130;5.584;2022-11-28T11:17:00;47.20;;;15.80;;
18724;SDS011;65581;52.130;5.584;2022-11-28T11:19:29;43.30;;;15.53;;
18724;SDS011;65581;52.130;5.584;2022-11-28T11:21:58;45.03;;;15.37;;
18724;SDS011;65581;52.130;5.584;2022-11-28T11:24:27;47.33;;;16.00;;
18724;SDS011;65581;52.130;5.584;2022-11-28T11:27:00;46.73;;;15.33;;
18724;SDS011;65581;52.130;5.584;2022-11-28T11:29:29;51.80;;;15.87;;
18724;SDS011;65581;52.130;5.584;2022-11-28T11:31:59;48.60;;;16.57;;
18724;SDS011;65581;52.130;5.584;2022-11-28T11:34:31;46.13;;;16.90;;
18724;SDS011;65581;52.130;5.584;2022-11-28T11:37:16;44.70;;;15.50;;
18724;SDS011;65581;52.130;5.584;2022-11-28T11:39:55;43.60;;;15.97;;
18724;SDS011;65581;52.130;5.584;2022-11-28T11:42:22;45.70;;;16.50;;
18724;SDS011;65581;52.130;5.584;2022-11-28T11:44:51;49.10;;;17.47;;
18724;SDS011;65581;52.130;5.584;2022-11-28T11:47:18;57.27;;;18.50;;
18724;SDS011;65581;52.130;5.584;2022-11-28T11:49:47;59.63;;;19.30;;
18724;SDS011;65581;52.130;5.584;2022-11-28T11:52:17;53.33;;;18.30;;
18724;SDS011;65581;52.130;5.584;2022-11-28T11:54:52;55.67;;;19.13;;
18724;SDS011;65581;52.130;5.584;2022-11-28T11:57:22;50.87;;;18.17;;
18724;SDS011;65581;52.130;5.584;2022-11-28T11:59:51;53.80;;;17.47;;
18724;SDS011;65581;52.130;5.584;2022-11-28T12:02:22;56.07;;;17.33;;
18724;SDS011;65581;52.130;5.584;2022-11-28T12:05:00;55.90;;;19.10;;
18724;SDS011;65581;52.130;5.584;2022-11-28T12:07:31;55.33;;;17.47;;
18724;SDS011;65581;52.130;5.584;2022-11-28T12:10:03;50.27;;;18.23;;
18724;SDS011;65581;52.130;5.584;2022-11-28T12:12:35;56.50;;;18.70;;
18724;SDS011;65581;52.130;5.584;2022-11-28T12:15:03;48.90;;;17.50;;
18724;SDS011;65581;52.130;5.584;2022-11-28T12:17:42;53.03;;;17.30;;
18724;SDS011;65581;52.130;5.584;2022-11-28T12:20:24;56.20;;;18.73;;
18724;SDS011;65581;52.130;5.584;2022-11-28T12:23:10;58.80;;;19.23;;
18724;SDS011;65581;52.130;5.584;2022-11-28T12:25:49;58.03;;;19.37;;
18724;SDS011;65581;52.130;5.584;2022-11-28T12:28:22;52.47;;;18.87;;
18724;SDS011;65581;52.130;5.584;2022-11-28T12:31:01;50.37;;;17.63;;
18724;SDS011;65581;52.130;5.584;2022-11-28T12:33:37;51.97;;;18.33;;
18724;SDS011;65581;52.130;5.584;2022-11-28T12:36:14;50.13;;;18.10;;
18724;SDS011;65581;52.130;5.584;2022-11-28T12:38:57;46.83;;;17.23;;
18724;SDS011;65581;52.130;5.584;2022-11-28T12:41:35;51.27;;;17.60;;
18724;SDS011;65581;52.130;5.584;2022-11-28T12:44:22;48.17;;;18.07;;
18724;SDS011;65581;52.130;5.584;2022-11-28T12:46:59;49.90;;;17.17;;
18724;SDS011;65581;52.130;5.584;2022-11-28T12:49:36;46.80;;;18.03;;
18724;SDS011;65581;52.130;5.584;2022-11-28T12:52:16;45.93;;;17.07;;
18724;SDS011;65581;52.130;5.584;2022-11-28T12:57:44;46.93;;;17.30;;
18724;SDS011;65581;52.130;5.584;2022-11-28T13:00:18;46.80;;;16.50;;
18724;SDS011;65581;52.130;5.584;2022-11-28T13:05:35;44.13;;;17.20;;
18724;SDS011;65581;52.130;5.584;2022-11-28T13:08:17;48.17;;;17.77;;
18724;SDS011;65581;52.130;5.584;2022-11-28T13:11:12;46.90;;;18.03;;
18724;SDS011;65581;52.130;5.584;2022-11-28T13:13:48;47.73;;;18.57;;
18724;SDS011;65581;52.130;5.584;2022-11-28T13:16:21;48.77;;;18.63;;
18724;SDS011;65581;52.130;5.584;2022-11-28T13:18:56;50.10;;;18.40;;
18724;SDS011;65581;52.130;5.584;2022-11-28T13:21:30;46.20;;;17.37;;
18724;SDS011;65581;52.130;5.584;2022-11-28T13:24:05;52.33;;;18.70;;
18724;SDS011;65581;52.130;5.584;2022-11-28T13:26:44;47.60;;;18.47;;
18724;SDS011;65581;52.130;5.584;2022-11-28T13:29:25;51.00;;;18.50;;
18724;SDS011;65581;52.130;5.584;2022-11-28T13:31:59;49.70;;;18.73;;
18724;SDS011;65581;52.130;5.584;2022-11-28T13:34:32;53.37;;;18.00;;
18724;SDS011;65581;52.130;5.584;2022-11-28T13:37:02;56.53;;;19.53;;
18724;SDS011;65581;52.130;5.584;2022-11-28T13:39:40;54.40;;;19.67;;
18724;SDS011;65581;52.130;5.584;2022-11-28T13:42:15;55.77;;;19.57;;
18724;SDS011;65581;52.130;5.584;2022-11-28T13:44:51;52.87;;;19.23;;
18724;SDS011;65581;52.130;5.584;2022-11-28T13:47:25;53.90;;;19.03;;
18724;SDS011;65581;52.130;5.584;2022-11-28T13:52:57;53.00;;;18.93;;
18724;SDS011;65581;52.130;5.584;2022-11-28T13:55:40;51.77;;;19.43;;
18724;SDS011;65581;52.130;5.584;2022-11-28T13:58:14;55.30;;;19.73;;
18724;SDS011;65581;52.130;5.584;2022-11-28T14:00:53;58.90;;;19.80;;
18724;SDS011;65581;52.130;5.584;2022-11-28T14:03:33;52.70;;;20.20;;
18724;SDS011;65581;52.130;5.584;2022-11-28T14:06:01;59.77;;;20.20;;
18724;SDS011;65581;52.130;5.584;2022-11-28T14:08:32;57.63;;;19.70;;
18724;SDS011;65581;52.130;5.584;2022-11-28T14:11:10;55.20;;;19.47;;
18724;SDS011;65581;52.130;5.584;2022-11-28T14:13:55;50.53;;;18.93;;
18724;SDS011;65581;52.130;5.584;2022-11-28T14:16:35;58.03;;;20.63;;
18724;SDS011;65581;52.130;5.584;2022-11-28T14:19:15;52.07;;;19.77;;
18724;SDS011;65581;52.130;5.584;2022-11-28T14:21:56;57.03;;;19.60;;
18724;SDS011;65581;52.130;5.584;2022-11-28T14:24:37;58.50;;;21.03;;
18724;SDS011;65581;52.130;5.584;2022-11-28T14:27:19;59.73;;;21.07;;
18724;SDS011;65581;52.130;5.584;2022-11-28T14:29:49;56.97;;;20.23;;
18724;SDS011;65581;52.130;5.584;2022-11-28T14:32:22;56.07;;;20.30;;
18724;SDS011;65581;52.130;5.584;2022-11-28T14:34:54;56.20;;;21.30;;
18724;SDS011;65581;52.130;5.584;2022-11-28T14:43:29;58.10;;;20.17;;
18724;SDS011;65581;52.130;5.584;2022-11-28T14:49:06;54.73;;;19.83;;
18724;SDS011;65581;52.130;5.584;2022-11-28T14:54:42;52.93;;;19.37;;
18724;SDS011;65581;52.130;5.584;2022-11-28T14:57:11;59.03;;;20.53;;
18724;SDS011;65581;52.130;5.584;2022-11-28T14:59:43;51.43;;;18.80;;
18724;SDS011;65581;52.130;5.584;2022-11-28T15:02:31;63.53;;;20.83;;
18724;SDS011;65581;52.130;5.584;2022-11-28T15:08:03;59.40;;;21.07;;
18724;SDS011;65581;52.130;5.584;2022-11-28T15:10:52;58.63;;;20.23;;
18724;SDS011;65581;52.130;5.584;2022-11-28T15:13:34;65.03;;;22.70;;
18724;SDS011;65581;52.130;5.584;2022-11-28T15:16:14;59.43;;;22.00;;
18724;SDS011;65581;52.130;5.584;2022-11-28T15:18:45;60.33;;;21.60;;
18724;SDS011;65581;52.130;5.584;2022-11-28T15:21:14;61.70;;;21.97;;
18724;SDS011;65581;52.130;5.584;2022-11-28T15:23:43;58.03;;;20.27;;
18724;SDS011;65581;52.130;5.584;2022-11-28T15:26:16;65.13;;;21.93;;
18724;SDS011;65581;52.130;5.584;2022-11-28T15:28:44;62.43;;;20.90;;